Terminal Aerodrome Forecast
Issued by NWS Tuscon, AZ

Home | Current Version | Previous Version | Text Only | Print | Product List | Glossary On
Versions: 1 2 3 4 5 6 7 8 9 10 11 12
000
FTUS45 KTWC 091136
TAFDUG
TAF
KDUG 091136Z 0912/1012 VRB04KT P6SM FEW250
     FM091700 10005KT P6SM BKN250
     FM100100 05006KT P6SM BKN250
     FM100700 VRB04KT P6SM BKN250=

USA.gov is the U.S. government's official web portal to all federal, state and local government web resources and services.